createdAt,value
2022-08-10T00:01:07.762Z,27.89
2022-08-10T00:03:34.319Z,27.83
2022-08-10T00:06:00.807Z,27.80
2022-08-10T00:08:27.530Z,27.63
2022-08-10T00:10:54.088Z,27.75
2022-08-10T00:13:20.601Z,27.55
2022-08-10T00:15:53.861Z,27.59
2022-08-10T00:18:34.413Z,27.47
2022-08-10T00:21:01.983Z,27.50
2022-08-10T00:23:28.538Z,27.43
2022-08-10T00:25:55.175Z,26.51
2022-08-10T00:28:24.741Z,26.01
2022-08-10T00:30:51.255Z,25.68
2022-08-10T00:33:18.047Z,25.62
2022-08-10T00:35:45.006Z,25.94
2022-08-10T00:38:11.543Z,26.43
2022-08-10T00:40:38.290Z,26.31
2022-08-10T00:43:04.916Z,25.57
2022-08-10T00:45:31.490Z,25.71
2022-08-10T00:47:57.970Z,26.11
2022-08-10T00:50:24.662Z,26.32
2022-08-10T00:52:51.157Z,26.46
2022-08-10T00:55:17.749Z,26.39
2022-08-10T00:57:44.366Z,26.29
2022-08-10T01:00:10.810Z,26.20
2022-08-10T01:02:37.567Z,26.30
2022-08-10T01:05:04.404Z,26.33
2022-08-10T01:07:31.008Z,26.41
2022-08-10T01:10:00.550Z,26.61
2022-08-10T01:12:37.408Z,26.82
2022-08-10T01:15:07.748Z,26.79
2022-08-10T01:17:50.493Z,26.88
2022-08-10T01:20:30.046Z,26.77
2022-08-10T01:22:59.760Z,26.76
2022-08-10T01:25:26.360Z,26.70
2022-08-10T01:27:53.098Z,25.50
2022-08-10T01:30:19.737Z,25.05
2022-08-10T01:32:46.764Z,25.40
2022-08-10T01:35:13.329Z,25.54
2022-08-10T01:37:39.862Z,25.66
2022-08-10T01:40:06.364Z,25.69
2022-08-10T01:42:33.100Z,25.18
2022-08-10T01:45:00.037Z,25.33
2022-08-10T01:47:26.594Z,24.73
2022-08-10T01:49:54.027Z,24.96
2022-08-10T01:52:22.804Z,24.81
2022-08-10T01:54:49.551Z,25.28
2022-08-10T01:57:19.217Z,25.10
2022-08-10T01:59:58.816Z,24.93
2022-08-10T02:02:28.897Z,25.24
2022-08-10T02:04:56.079Z,24.98
2022-08-10T02:07:22.601Z,25.15
2022-08-10T02:09:49.185Z,25.18
2022-08-10T02:12:15.692Z,24.90
2022-08-10T02:14:42.220Z,25.37
2022-08-10T02:17:08.823Z,25.25
2022-08-10T02:19:35.438Z,25.31
2022-08-10T02:22:36.860Z,25.30
2022-08-10T02:24:48.733Z,25.35
2022-08-10T02:27:15.233Z,24.99
2022-08-10T02:29:42.876Z,25.29
2022-08-10T02:32:10.244Z,25.89
2022-08-10T02:34:37.528Z,26.15
2022-08-10T02:37:10.804Z,26.19
2022-08-10T02:39:38.623Z,26.35
2022-08-10T02:45:13.340Z,26.43
2022-08-10T02:45:24.118Z,26.26
2022-08-10T02:47:50.903Z,26.34
2022-08-10T02:50:18.878Z,26.17
2022-08-10T02:52:45.473Z,26.11
2022-08-10T02:55:18.098Z,26.05
2022-08-10T02:58:17.114Z,25.78
2022-08-10T03:00:32.689Z,25.92
2022-08-10T03:03:01.405Z,25.79
2022-08-10T03:05:28.019Z,25.74
2022-08-10T03:07:54.530Z,26.07
2022-08-10T03:10:21.305Z,25.29
2022-08-10T03:12:48.954Z,25.41
2022-08-10T03:15:16.238Z,25.24
2022-08-10T03:17:42.738Z,24.19
2022-08-10T03:20:38.215Z,24.73
2022-08-10T03:23:05.811Z,25.07
2022-08-10T03:25:32.690Z,25.36
2022-08-10T03:27:59.295Z,25.33
2022-08-10T03:30:33.298Z,25.55
2022-08-10T03:33:00.712Z,25.76
2022-08-10T03:35:27.342Z,25.12
2022-08-10T03:37:59.074Z,25.29
2022-08-10T03:40:44.740Z,25.60
2022-08-10T03:43:13.050Z,25.25
2022-08-10T03:45:54.428Z,25.41
2022-08-10T03:48:21.246Z,25.07
2022-08-10T03:50:51.776Z,24.98
2022-08-10T03:53:25.135Z,25.18
2022-08-10T03:56:28.385Z,25.15
2022-08-10T03:58:53.072Z,24.85
2022-08-10T04:01:19.657Z,25.12
2022-08-10T04:03:46.612Z,24.73
2022-08-10T04:06:13.226Z,25.08
2022-08-10T04:08:40.076Z,24.82
2022-08-10T04:11:06.784Z,24.99
2022-08-10T04:13:50.843Z,24.93
2022-08-10T04:16:17.356Z,24.87
2022-08-10T04:18:43.956Z,24.48
2022-08-10T04:21:10.494Z,24.73
2022-08-10T04:23:37.047Z,24.09
2022-08-10T04:26:03.621Z,23.98
2022-08-10T04:28:30.186Z,23.47
2022-08-10T04:30:56.693Z,23.94
2022-08-10T04:33:23.220Z,24.02
2022-08-10T04:35:49.911Z,23.93
2022-08-10T04:38:16.485Z,23.82
2022-08-10T04:40:43.201Z,23.86
2022-08-10T04:43:13.304Z,24.30
2022-08-10T04:45:49.795Z,23.98
2022-08-10T04:48:40.527Z,24.58
2022-08-10T04:51:04.884Z,24.39
2022-08-10T04:53:31.527Z,24.46
2022-08-10T04:55:58.058Z,24.41
2022-08-10T04:58:24.694Z,24.32
2022-08-10T05:00:51.402Z,24.25
2022-08-10T05:03:19.726Z,24.16
2022-08-10T05:05:46.315Z,24.49
2022-08-10T05:08:15.282Z,24.38
2022-08-10T05:10:41.871Z,24.74
2022-08-10T05:13:08.469Z,24.83
2022-08-10T05:15:34.991Z,24.51
2022-08-10T05:18:06.801Z,24.38
2022-08-10T05:20:36.527Z,24.42
2022-08-10T05:23:03.520Z,24.63
2022-08-10T05:25:32.969Z,24.85
2022-08-10T05:28:06.898Z,25.07
2022-08-10T05:30:33.954Z,25.03
2022-08-10T05:33:05.165Z,25.21
2022-08-10T05:35:55.130Z,25.42
2022-08-10T05:38:23.333Z,25.48
2022-08-10T05:40:49.849Z,25.63
2022-08-10T05:43:17.273Z,25.92
2022-08-10T05:46:19.566Z,25.94
2022-08-10T05:48:58.146Z,26.00
2022-08-10T05:51:20.472Z,26.35
2022-08-10T05:54:01.103Z,26.41
2022-08-10T05:56:54.833Z,26.41
2022-08-10T06:00:12.614Z,26.44
2022-08-10T06:02:32.867Z,26.49
2022-08-10T06:04:51.888Z,26.63
2022-08-10T06:07:21.695Z,27.01
2022-08-10T06:09:59.334Z,26.98
2022-08-10T06:12:29.890Z,26.79
2022-08-10T06:14:59.661Z,27.03
2022-08-10T06:17:27.029Z,27.12
2022-08-10T06:19:53.637Z,27.34
2022-08-10T06:22:20.261Z,27.71
2022-08-10T06:25:12.545Z,27.30
2022-08-10T06:27:34.190Z,27.54
2022-08-10T06:30:02.123Z,27.22
2022-08-10T06:32:28.718Z,27.72
2022-08-10T06:34:57.516Z,27.77
2022-08-10T06:37:24.093Z,27.71
2022-08-10T06:39:50.719Z,28.20
2022-08-10T06:42:18.469Z,27.50
2022-08-10T06:44:45.292Z,27.80
2022-08-10T06:47:11.887Z,27.88
2022-08-10T06:49:39.478Z,27.55
2022-08-10T06:52:05.986Z,27.98
2022-08-10T06:54:32.518Z,28.34
2022-08-10T06:57:17.444Z,28.01
2022-08-10T06:59:44.726Z,28.12
2022-08-10T07:02:11.249Z,28.13
2022-08-10T07:04:38.659Z,27.37
2022-08-10T07:07:13.778Z,27.83
2022-08-10T07:09:41.014Z,27.93
2022-08-10T07:12:09.146Z,27.39
2022-08-10T07:14:36.230Z,27.96
2022-08-10T07:17:02.746Z,28.19
2022-08-10T07:19:29.288Z,28.25
2022-08-10T07:21:58.027Z,28.32
2022-08-10T07:24:25.034Z,28.57
2022-08-10T07:26:51.558Z,28.68
2022-08-10T07:29:26.513Z,28.56
2022-08-10T07:32:04.748Z,28.30
2022-08-10T07:34:31.340Z,28.25
2022-08-10T07:36:57.941Z,28.63
2022-08-10T07:40:02.491Z,27.84
2022-08-10T07:42:16.921Z,28.09
2022-08-10T07:44:43.528Z,28.44
2022-08-10T07:47:10.049Z,28.42
2022-08-10T07:49:36.666Z,28.67
2022-08-10T07:52:03.365Z,28.54
2022-08-10T07:54:29.966Z,28.63
2022-08-10T07:56:56.763Z,28.77
2022-08-10T07:59:23.598Z,28.77
2022-08-10T08:01:52.548Z,28.39
2022-08-10T08:04:19.201Z,28.79
2022-08-10T08:06:45.716Z,28.69
2022-08-10T08:09:13.207Z,28.89
2022-08-10T08:11:40.043Z,28.76
2022-08-10T08:14:06.865Z,28.72
2022-08-10T08:16:33.428Z,28.76
2022-08-10T08:24:07.807Z,28.54
2022-08-10T08:24:34.420Z,28.66
2022-08-10T08:27:01.609Z,28.81
2022-08-10T08:29:28.942Z,28.81
2022-08-10T08:32:02.173Z,28.77
2022-08-10T08:34:29.576Z,28.67
2022-08-10T08:36:59.752Z,28.61
2022-08-10T08:39:26.916Z,28.61
2022-08-10T08:41:53.686Z,28.52
2022-08-10T08:44:21.116Z,28.67
2022-08-10T08:46:52.686Z,28.69
2022-08-10T08:50:05.004Z,28.62
2022-08-10T08:52:18.629Z,28.69
2022-08-10T08:54:45.304Z,28.55
2022-08-10T08:57:11.866Z,28.03
2022-08-10T08:59:49.419Z,27.71
2022-08-10T09:02:16.078Z,27.99
2022-08-10T09:04:42.662Z,27.92
2022-08-10T09:08:01.229Z,28.12
2022-08-10T09:09:56.042Z,27.89
2022-08-10T09:12:22.615Z,27.83
2022-08-10T09:14:49.292Z,28.20
2022-08-10T09:17:15.769Z,28.17
2022-08-10T09:19:42.622Z,28.41
2022-08-10T09:22:17.969Z,28.67
2022-08-10T09:24:45.849Z,28.43
2022-08-10T09:27:14.265Z,28.63
2022-08-10T09:29:40.805Z,28.71
2022-08-10T09:36:14.870Z,28.76
2022-08-10T09:36:23.686Z,28.78
2022-08-10T09:38:02.116Z,28.88
2022-08-10T09:41:00.229Z,28.89
2022-08-10T09:43:25.266Z,28.74
2022-08-10T09:45:53.426Z,28.70
2022-08-10T09:48:20.028Z,28.94
2022-08-10T09:53:33.277Z,28.86
2022-08-10T09:56:17.110Z,28.85
2022-08-10T09:58:46.048Z,29.09
2022-08-10T10:01:58.339Z,29.12
2022-08-10T10:03:59.330Z,29.13
2022-08-10T10:06:25.933Z,29.07
2022-08-10T10:08:53.817Z,29.07
2022-08-10T10:11:25.363Z,28.93
2022-08-10T10:14:02.562Z,29.17
2022-08-10T10:16:31.098Z,28.88
2022-08-10T10:18:57.699Z,28.98
2022-08-10T10:21:54.478Z,29.04
2022-08-10T10:24:20.146Z,29.18
2022-08-10T10:26:48.118Z,29.06
2022-08-10T10:29:44.686Z,29.41
2022-08-10T10:32:01.638Z,29.35
2022-08-10T10:34:28.484Z,29.50
2022-08-10T10:36:55.140Z,29.47
2022-08-10T10:39:24.085Z,29.46
2022-08-10T10:42:03.406Z,29.44
2022-08-10T10:44:31.663Z,29.60
2022-08-10T10:46:58.246Z,29.54
2022-08-10T10:49:25.194Z,29.32
2022-08-10T10:51:52.682Z,29.54
2022-08-10T10:54:19.324Z,29.44
2022-08-10T10:56:46.118Z,29.50
2022-08-10T10:59:33.399Z,29.67
2022-08-10T11:02:01.193Z,29.49
2022-08-10T11:04:27.749Z,29.85
2022-08-10T11:06:55.239Z,29.87
2022-08-10T11:10:04.683Z,30.01
2022-08-10T11:12:09.364Z,29.62
2022-08-10T11:14:39.814Z,29.80
2022-08-10T11:17:06.558Z,30.03
2022-08-10T11:20:00.464Z,29.85
2022-08-10T11:22:20.914Z,29.94
2022-08-10T11:24:50.250Z,30.10
2022-08-10T11:27:21.869Z,30.09
2022-08-10T11:29:49.862Z,30.06
2022-08-10T11:32:20.668Z,30.02
2022-08-10T11:35:12.011Z,30.19
2022-08-10T11:38:34.209Z,30.22
2022-08-10T11:40:21.482Z,30.27
2022-08-10T11:42:48.260Z,30.15
2022-08-10T11:45:15.650Z,30.28
2022-08-10T11:47:42.184Z,30.39
2022-08-10T11:50:10.874Z,30.11
2022-08-10T11:52:37.834Z,30.40
2022-08-10T11:55:04.597Z,30.50
2022-08-10T11:57:54.000Z,30.47
2022-08-10T12:00:17.794Z,30.65
2022-08-10T12:02:44.637Z,30.60
2022-08-10T12:05:11.254Z,30.71
2022-08-10T12:08:54.814Z,30.71
2022-08-10T12:10:24.757Z,30.74
2022-08-10T12:12:53.267Z,30.75
2022-08-10T12:15:20.166Z,30.92
2022-08-10T12:17:46.700Z,30.90
2022-08-10T12:20:13.409Z,30.86
2022-08-10T12:22:39.961Z,31.07
2022-08-10T12:25:07.538Z,31.24
2022-08-10T12:27:34.304Z,31.16
2022-08-10T12:30:00.879Z,31.03
2022-08-10T12:32:28.305Z,31.15
2022-08-10T12:34:54.924Z,31.20
2022-08-10T12:37:21.400Z,31.04
2022-08-10T12:39:48.117Z,31.18
2022-08-10T12:42:34.910Z,31.19
2022-08-10T12:45:01.396Z,31.52
2022-08-10T12:47:27.964Z,31.59
2022-08-10T12:50:13.588Z,31.67
2022-08-10T12:52:41.362Z,31.70
2022-08-10T12:55:11.116Z,31.77
2022-08-10T12:57:37.686Z,31.77
2022-08-10T13:00:04.576Z,31.88
2022-08-10T13:02:31.131Z,31.85
2022-08-10T13:04:57.712Z,31.82
2022-08-10T13:08:25.810Z,31.81
2022-08-10T13:10:10.923Z,32.06
2022-08-10T13:12:40.354Z,31.85
2022-08-10T13:15:45.803Z,32.08
2022-08-10T13:17:54.127Z,32.05
2022-08-10T13:20:20.774Z,32.20
2022-08-10T13:22:47.561Z,32.15
2022-08-10T13:25:15.169Z,32.18
2022-08-10T13:28:00.458Z,32.28
2022-08-10T13:30:33.695Z,32.30
2022-08-10T13:33:06.185Z,32.41
2022-08-10T13:35:32.818Z,32.53
2022-08-10T13:37:59.427Z,32.44
2022-08-10T13:40:26.076Z,32.51
2022-08-10T13:42:52.653Z,32.28
2022-08-10T13:45:19.275Z,32.35
2022-08-10T13:47:49.473Z,32.55
2022-08-10T13:50:16.637Z,32.50
2022-08-10T13:52:45.854Z,32.66
2022-08-10T13:55:12.407Z,32.82
2022-08-10T13:57:43.979Z,32.79
2022-08-10T14:00:36.419Z,32.55
2022-08-10T14:03:01.306Z,32.89
2022-08-10T14:05:28.584Z,32.67
2022-08-10T14:08:00.850Z,32.82
2022-08-10T14:11:02.062Z,32.94
2022-08-10T14:13:14.653Z,32.61
2022-08-10T14:15:41.799Z,32.91
2022-08-10T14:18:08.333Z,32.95
2022-08-10T14:20:34.925Z,32.99
2022-08-10T14:23:01.538Z,33.16
2022-08-10T14:25:28.105Z,33.22
2022-08-10T14:28:01.970Z,33.25
2022-08-10T14:30:30.939Z,33.08
2022-08-10T14:32:57.705Z,33.15
2022-08-10T14:36:19.684Z,33.28
2022-08-10T14:38:11.121Z,33.41
2022-08-10T14:40:37.940Z,33.25
2022-08-10T14:43:04.639Z,33.35
2022-08-10T14:45:31.166Z,33.36
2022-08-10T14:47:59.511Z,33.38
2022-08-10T14:50:32.550Z,33.51
2022-08-10T14:53:00.005Z,33.51
2022-08-10T14:55:28.681Z,33.29
2022-08-10T14:58:18.922Z,33.20
2022-08-10T15:00:43.292Z,33.54
2022-08-10T15:03:11.289Z,33.59
2022-08-10T15:05:59.072Z,33.55
2022-08-10T15:08:26.082Z,33.71
2022-08-10T15:10:52.629Z,33.70
2022-08-10T15:13:34.841Z,33.72
2022-08-10T15:16:12.395Z,33.56
2022-08-10T15:18:39.632Z,33.55
2022-08-10T15:21:16.849Z,33.61
2022-08-10T15:24:04.515Z,33.64
2022-08-10T15:26:31.398Z,33.73
2022-08-10T15:29:24.330Z,33.61
2022-08-10T15:31:49.281Z,33.58
2022-08-10T15:34:16.643Z,33.55
2022-08-10T15:36:43.168Z,33.78
2022-08-10T15:40:19.085Z,33.61
2022-08-10T15:41:58.933Z,33.70
2022-08-10T15:44:27.014Z,33.83
2022-08-10T15:46:53.887Z,33.84
2022-08-10T15:49:20.634Z,34.00
2022-08-10T15:51:54.322Z,33.88
2022-08-10T15:54:33.176Z,33.98
2022-08-10T15:57:01.010Z,33.69
2022-08-10T15:59:27.800Z,33.98
2022-08-10T16:02:04.290Z,34.02
2022-08-10T16:04:40.942Z,34.03
2022-08-10T16:07:12.377Z,34.07
2022-08-10T16:10:24.277Z,34.07
2022-08-10T16:12:30.422Z,34.03
2022-08-10T16:14:57.019Z,34.10
2022-08-10T16:17:23.603Z,34.05
2022-08-10T16:19:50.133Z,34.07
2022-08-10T16:22:36.319Z,33.86
2022-08-10T16:25:03.506Z,34.06
2022-08-10T16:27:30.162Z,33.98
2022-08-10T16:29:57.016Z,33.62
2022-08-10T16:32:24.371Z,33.70
2022-08-10T16:34:50.865Z,33.32
2022-08-10T16:37:19.929Z,33.40
2022-08-10T16:39:58.008Z,33.53
2022-08-10T16:42:27.985Z,33.27
2022-08-10T16:44:54.521Z,32.65
2022-08-10T16:47:26.722Z,32.23
2022-08-10T16:49:54.357Z,31.95
2022-08-10T16:52:20.914Z,31.79
2022-08-10T16:54:50.113Z,31.84
2022-08-10T16:57:16.847Z,31.39
2022-08-10T16:59:43.537Z,31.35
2022-08-10T17:02:10.073Z,31.35
2022-08-10T17:07:37.949Z,30.95
2022-08-10T17:10:04.754Z,31.41
2022-08-10T17:12:31.286Z,31.87
2022-08-10T17:15:10.409Z,31.80
2022-08-10T17:17:38.599Z,31.67
2022-08-10T17:20:30.529Z,31.52
2022-08-10T17:22:55.110Z,31.43
2022-08-10T17:25:21.654Z,31.26
2022-08-10T17:28:04.125Z,31.36
2022-08-10T17:30:36.862Z,31.40
2022-08-10T17:33:22.429Z,31.18
2022-08-10T17:35:49.242Z,30.99
2022-08-10T17:38:16.198Z,30.69
2022-08-10T17:40:42.834Z,30.36
2022-08-10T17:43:09.521Z,30.25
2022-08-10T17:45:46.892Z,30.54
2022-08-10T17:48:17.894Z,30.57
2022-08-10T17:50:44.458Z,30.36
2022-08-10T17:53:11.120Z,30.38
2022-08-10T17:55:37.964Z,30.22
2022-08-10T17:58:04.760Z,30.27
2022-08-10T18:00:31.269Z,30.24
2022-08-10T18:02:57.854Z,30.20
2022-08-10T18:05:24.462Z,30.52
2022-08-10T18:07:51.280Z,30.12
2022-08-10T18:10:17.914Z,29.90
2022-08-10T18:12:44.505Z,29.94
2022-08-10T18:15:13.724Z,30.03
2022-08-10T18:17:40.674Z,29.73
2022-08-10T18:20:07.207Z,29.81
2022-08-10T18:22:33.872Z,29.58
2022-08-10T18:25:00.450Z,29.69
2022-08-10T18:28:08.737Z,29.65
2022-08-10T18:30:13.699Z,29.66
2022-08-10T18:32:40.469Z,29.51
2022-08-10T18:35:07.010Z,29.55
2022-08-10T18:37:33.829Z,29.85
2022-08-10T18:40:00.607Z,29.29
2022-08-10T18:42:27.410Z,29.23
2022-08-10T18:44:53.917Z,29.03
2022-08-10T18:47:20.452Z,29.24
2022-08-10T18:49:47.102Z,29.12
2022-08-10T18:52:13.573Z,29.23
2022-08-10T18:54:44.776Z,29.19
2022-08-10T18:57:12.060Z,29.07
2022-08-10T18:59:38.582Z,29.11
2022-08-10T19:02:05.359Z,28.95
2022-08-10T19:04:31.999Z,28.80
2022-08-10T19:06:58.681Z,28.64
2022-08-10T19:09:46.656Z,28.81
2022-08-10T19:12:30.169Z,28.71
2022-08-10T19:15:06.628Z,28.61
2022-08-10T19:18:01.238Z,28.65
2022-08-10T19:20:20.296Z,28.33
2022-08-10T19:22:48.943Z,28.43
2022-08-10T19:25:15.446Z,28.51
2022-08-10T19:27:42.159Z,28.42
2022-08-10T19:30:13.401Z,28.27
2022-08-10T19:32:40.575Z,28.33
2022-08-10T19:35:07.246Z,28.12
2022-08-10T19:37:33.882Z,27.97
2022-08-10T19:40:00.590Z,27.76
2022-08-10T19:42:31.105Z,27.64
2022-08-10T19:44:58.400Z,27.69
2022-08-10T19:47:24.980Z,27.86
2022-08-10T19:49:51.597Z,27.64
2022-08-10T19:52:20.378Z,27.52
2022-08-10T19:54:46.969Z,27.65
2022-08-10T19:57:16.968Z,27.67
2022-08-10T20:00:17.102Z,27.54
2022-08-10T20:02:30.278Z,27.64
2022-08-10T20:04:57.213Z,27.49
2022-08-10T20:07:24.124Z,27.36
2022-08-10T20:09:50.583Z,27.33
2022-08-10T20:12:20.784Z,27.35
2022-08-10T20:14:47.270Z,27.23
2022-08-10T20:17:13.863Z,27.25
2022-08-10T20:19:53.888Z,27.34
2022-08-10T20:22:28.697Z,27.25
2022-08-10T20:24:58.924Z,27.09
2022-08-10T20:27:58.816Z,27.33
2022-08-10T20:30:13.289Z,27.16
2022-08-10T20:32:39.907Z,27.23
2022-08-10T20:35:06.690Z,26.92
2022-08-10T20:38:02.972Z,26.81
2022-08-10T20:40:20.296Z,26.92
2022-08-10T20:42:47.032Z,27.04
2022-08-10T20:45:17.135Z,27.01
2022-08-10T20:47:53.810Z,26.97
2022-08-10T20:50:21.037Z,26.88
2022-08-10T20:52:47.620Z,27.04
2022-08-10T20:55:14.238Z,26.81
2022-08-10T20:57:54.164Z,26.81
2022-08-10T21:00:22.895Z,26.75
2022-08-10T21:02:49.921Z,26.59
2022-08-10T21:05:16.845Z,26.75
2022-08-10T21:08:02.807Z,26.52
2022-08-10T21:10:30.062Z,26.55
2022-08-10T21:12:56.664Z,26.39
2022-08-10T21:15:23.195Z,26.47
2022-08-10T21:17:49.828Z,26.69
2022-08-10T21:20:16.397Z,26.60
2022-08-10T21:22:42.977Z,26.40
2022-08-10T21:25:15.445Z,26.48
2022-08-10T21:27:42.457Z,26.65
2022-08-10T21:30:14.686Z,26.54
2022-08-10T21:32:42.141Z,26.49
2022-08-10T21:35:09.024Z,26.75
2022-08-10T21:37:40.067Z,26.65
2022-08-10T21:40:07.952Z,26.51
2022-08-10T21:42:53.778Z,26.51
2022-08-10T21:45:20.584Z,26.63
2022-08-10T21:48:16.505Z,26.72
2022-08-10T21:50:45.808Z,26.93
2022-08-10T21:53:13.315Z,27.10
2022-08-10T21:55:57.720Z,26.84
2022-08-10T21:58:27.514Z,27.35
2022-08-10T22:00:57.403Z,27.73
2022-08-10T22:03:24.027Z,28.43
2022-08-10T22:05:51.461Z,28.44
2022-08-10T22:08:19.507Z,28.73
2022-08-10T22:10:47.129Z,28.92
2022-08-10T22:13:16.610Z,29.05
2022-08-10T22:16:05.346Z,29.08
2022-08-10T22:18:32.966Z,28.91
2022-08-10T22:20:59.799Z,28.64
2022-08-10T22:23:27.262Z,28.99
2022-08-10T22:25:54.142Z,29.05
2022-08-10T22:28:20.833Z,28.94
2022-08-10T22:31:02.654Z,29.18
2022-08-10T22:33:33.878Z,29.19
2022-08-10T22:36:00.639Z,29.25
2022-08-10T22:38:27.174Z,29.25
2022-08-10T22:40:53.713Z,29.13
2022-08-10T22:43:35.547Z,29.23
2022-08-10T22:46:03.145Z,29.27
2022-08-10T22:48:29.992Z,29.22
2022-08-10T22:50:56.737Z,28.98
2022-08-10T22:53:23.335Z,29.04
2022-08-10T22:55:50.111Z,28.77
2022-08-10T22:58:16.587Z,28.67
2022-08-10T23:00:43.556Z,28.21
2022-08-10T23:03:10.177Z,28.25
2022-08-10T23:05:36.849Z,28.26
2022-08-10T23:08:03.400Z,27.59
2022-08-10T23:10:29.982Z,27.29
2022-08-10T23:12:56.546Z,26.92
2022-08-10T23:15:23.105Z,26.48
2022-08-10T23:18:01.750Z,27.03
2022-08-10T23:20:29.006Z,26.71
2022-08-10T23:22:55.639Z,26.42
2022-08-10T23:25:28.327Z,26.57
2022-08-10T23:27:56.869Z,26.92
2022-08-10T23:30:25.201Z,26.92
2022-08-10T23:32:52.875Z,27.10
2022-08-10T23:36:29.876Z,26.36
2022-08-10T23:38:06.007Z,26.37
2022-08-10T23:40:32.812Z,26.36
2022-08-10T23:42:59.363Z,26.35
2022-08-10T23:45:26.000Z,26.53
2022-08-10T23:47:54.896Z,27.00
2022-08-10T23:50:21.468Z,26.70
2022-08-10T23:52:48.006Z,26.57
2022-08-10T23:55:14.575Z,26.60
2022-08-10T23:57:42.543Z,26.55
